»·PEaware :: N872G KBFI-CYBW

N872G :: KBFI-CYBW

FLIGHT INFORMATION

Flight Status: Arrived
Operator: Privately registered:
United States
More flights under this callsign
Pilot: Gabor H. (24209)
Aircraft: CESSNA 510 CITATION MUSTANG
(C510)
More flights by this aircraft type
Origin: KBFI Boeing Field/King Co Intl
United States
Destination: CYBW Springbank
Canada
More flights between these airports :: More routes between these airports
Route: +NRVNA1 NRVNA ALPSE YDC KETTL MENBO Q983 NORET BRAGG4
File this flight plan on PilotEdge
Remarks:
Altitude:
(Current/Filed)
37,000ft
Speed:
(Current/Filed)
340kts
Departed: 13-Dec-20 02:25 PM
Arrived: 13-Dec-20 03:50 PM
Distance/Time
Traveled:
377nm/1:25
Distance/Time
To Go:
Arrived

Flight Plot

Page will automatically refresh every two minutes.

Flight plan parsing failed; only flown route is shown


Map Options




Map Legend


Flown Route
Filed Route
Departure Airport
Arrival Airport
Navaid (VOR, NDB)
Fix

Horizontal Profiles

Position Reports

Time Latitude Longitude Heading Altitude Ground
Speed
13-Dec-20 13:59 47.524945 -122.295197 182 22ft 0kts
13-Dec-20 14:00 47.524945 -122.295197 182 22ft 0kts
13-Dec-20 14:01 47.524945 -122.295197 182 22ft 0kts
13-Dec-20 14:02 47.524945 -122.295197 182 22ft 0kts
13-Dec-20 14:03 47.524945 -122.295197 182 22ft 0kts
13-Dec-20 14:04 47.524945 -122.295197 182 22ft 0kts
13-Dec-20 14:05 47.524945 -122.295197 182 22ft 0kts
13-Dec-20 14:06 47.524945 -122.295197 182 22ft 0kts
13-Dec-20 14:07 47.524945 -122.295197 182 22ft 0kts
13-Dec-20 14:08 47.524945 -122.295197 182 22ft 0kts
13-Dec-20 14:09 47.524945 -122.295197 182 22ft 0kts
13-Dec-20 14:10 47.524945 -122.295197 182 22ft 0kts
13-Dec-20 14:11 47.524945 -122.295197 182 22ft 0kts
13-Dec-20 14:12 47.524945 -122.295197 182 22ft 0kts
13-Dec-20 14:13 47.524945 -122.295197 182 22ft 0kts
13-Dec-20 14:14 47.524945 -122.295197 182 22ft 0kts
13-Dec-20 14:15 47.524945 -122.295197 182 22ft 0kts
13-Dec-20 14:16 47.524945 -122.295197 182 22ft 0kts
13-Dec-20 14:16 47.524624 -122.295752 276 21ft 8kts
13-Dec-20 14:18 47.528304 -122.298296 7 21ft 11kts
13-Dec-20 14:18 47.531834 -122.301075 331 22ft 18kts
13-Dec-20 14:19 47.535710 -122.304309 321 22ft 13kts
13-Dec-20 14:20 47.539411 -122.307723 330 23ft 12kts
13-Dec-20 14:21 47.540864 -122.310155 239 23ft 0kts
13-Dec-20 14:22 47.540864 -122.310156 239 23ft 0kts
13-Dec-20 14:23 47.540643 -122.310694 237 22ft 11kts
13-Dec-20 14:24 47.530088 -122.302554 151 209ft 145kts
13-Dec-20 14:25 47.488283 -122.267523 149 2004ft 181kts
13-Dec-20 14:26 47.443029 -122.227078 126 1985ft 188kts
13-Dec-20 14:27 47.444539 -122.146342 85 4507ft 209kts
13-Dec-20 14:28 47.454228 -122.056492 85 7790ft 234kts
13-Dec-20 14:29 47.464587 -121.957641 85 10015ft 275kts
13-Dec-20 14:30 47.491778 -121.853711 20 10413ft 296kts
13-Dec-20 14:31 47.573609 -121.864555 348 12195ft 298kts
13-Dec-20 14:32 47.650627 -121.889434 341 15160ft 275kts
13-Dec-20 14:33 47.722743 -121.916146 340 18037ft 261kts
13-Dec-20 14:34 47.794909 -121.943537 339 20036ft 278kts
13-Dec-20 14:35 47.871175 -121.972217 340 21933ft 289kts
13-Dec-20 14:36 47.950665 -122.001995 340 23663ft 299kts
13-Dec-20 14:37 48.032690 -122.033036 340 25196ft 311kts
13-Dec-20 14:38 48.115113 -122.064256 341 26586ft 319kts
13-Dec-20 14:39 48.198767 -122.041774 42 27676ft 338kts
13-Dec-20 14:40 48.269017 -121.945311 45 28711ft 345kts
13-Dec-20 14:41 48.338636 -121.849093 45 30065ft 340kts
13-Dec-20 14:42 48.408556 -121.752273 45 31063ft 344kts
13-Dec-20 14:43 48.479283 -121.654348 44 32065ft 345kts
13-Dec-20 14:44 48.549722 -121.556726 44 33063ft 344kts
13-Dec-20 14:46 48.631812 -121.442436 43 34233ft 343kts
13-Dec-20 14:46 48.689790 -121.361330 43 35067ft 341kts
13-Dec-20 14:47 48.758818 -121.264497 43 36056ft 340kts
13-Dec-20 14:48 48.827746 -121.167389 43 37008ft 339kts
13-Dec-20 14:49 48.899504 -121.066145 42 37024ft 364kts
13-Dec-20 14:50 48.973996 -120.960516 43 37019ft 366kts
13-Dec-20 14:51 49.048209 -120.854693 43 37066ft 366kts
13-Dec-20 14:52 49.121987 -120.749059 43 37064ft 366kts
13-Dec-20 14:53 49.196245 -120.642248 42 37040ft 366kts
13-Dec-20 14:54 49.270552 -120.534970 42 37011ft 367kts
13-Dec-20 14:55 49.344325 -120.427941 42 36999ft 366kts
13-Dec-20 14:56 49.402682 -120.305214 65 36999ft 363kts
13-Dec-20 14:57 49.445277 -120.164562 66 37018ft 362kts
13-Dec-20 14:58 49.487485 -120.024581 66 37071ft 360kts
13-Dec-20 14:59 49.529537 -119.884394 65 37092ft 361kts
13-Dec-20 15:00 49.571538 -119.743911 65 37092ft 361kts
13-Dec-20 15:01 49.613663 -119.602105 65 37091ft 362kts
13-Dec-20 15:02 49.655491 -119.460329 65 37090ft 363kts
13-Dec-20 15:03 49.697101 -119.318553 66 37085ft 363kts
13-Dec-20 15:04 49.738807 -119.175649 66 37083ft 364kts
13-Dec-20 15:05 49.780289 -119.032541 66 37082ft 364kts
13-Dec-20 15:06 49.821646 -118.889053 66 37084ft 365kts
13-Dec-20 15:07 49.863010 -118.744757 66 37084ft 366kts
13-Dec-20 15:08 49.904265 -118.599882 66 37084ft 367kts
13-Dec-20 15:09 49.945425 -118.454505 66 37103ft 367kts
13-Dec-20 15:10 49.985536 -118.308464 73 37121ft 367kts
13-Dec-20 15:11 50.015654 -118.156215 73 37127ft 368kts
13-Dec-20 15:12 50.045239 -118.004029 73 37132ft 368kts
13-Dec-20 15:13 50.074816 -117.850744 73 37127ft 369kts
13-Dec-20 15:15 50.109055 -117.671875 73 37127ft 370kts
13-Dec-20 15:15 50.133460 -117.543238 72 37126ft 370kts
13-Dec-20 15:16 50.162503 -117.389034 72 37138ft 372kts
13-Dec-20 15:17 50.191585 -117.233407 73 37135ft 373kts
13-Dec-20 15:18 50.220602 -117.076886 72 37136ft 375kts
13-Dec-20 15:19 50.249542 -116.919702 72 37152ft 377kts
13-Dec-20 15:20 50.278509 -116.760868 71 37117ft 383kts
13-Dec-20 15:21 50.307657 -116.599987 71 37095ft 382kts
13-Dec-20 15:22 50.336334 -116.440058 71 37101ft 381kts
13-Dec-20 15:23 50.364812 -116.279843 72 37101ft 380kts
13-Dec-20 15:24 50.393706 -116.120531 68 37100ft 379kts
13-Dec-20 15:25 50.429680 -115.958349 68 35425ft 406kts
13-Dec-20 15:26 50.465462 -115.795412 67 33304ft 379kts
13-Dec-20 15:27 50.498597 -115.643638 67 31366ft 367kts
13-Dec-20 15:28 50.531653 -115.491242 67 29428ft 370kts
13-Dec-20 15:29 50.564800 -115.336791 67 27454ft 377kts
13-Dec-20 15:30 50.598176 -115.180056 67 25430ft 377kts
13-Dec-20 15:31 50.631010 -115.024779 66 23584ft 368kts
13-Dec-20 15:32 50.663111 -114.872955 66 21798ft 364kts
13-Dec-20 15:33 50.694467 -114.722589 66 20128ft 360kts
13-Dec-20 15:34 50.758080 -114.626742 13 18553ft 322kts
13-Dec-20 15:35 50.841609 -114.581435 12 16949ft 308kts
13-Dec-20 15:36 50.907014 -114.546253 11 15517ft 284kts
13-Dec-20 15:37 50.981328 -114.534606 354 13770ft 262kts
13-Dec-20 15:38 51.048764 -114.534716 354 12180ft 229kts
13-Dec-20 15:39 51.111409 -114.535232 356 10831ft 232kts
13-Dec-20 15:40 51.177585 -114.535706 358 9345ft 243kts
13-Dec-20 15:41 51.246282 -114.535766 359 7790ft 249kts
13-Dec-20 15:42 51.302508 -114.510194 73 6883ft 200kts
13-Dec-20 15:43 51.306351 -114.422509 93 6024ft 200kts
13-Dec-20 15:44 51.273162 -114.380156 176 6002ft 183kts
13-Dec-20 15:45 51.222116 -114.379056 178 5998ft 181kts
13-Dec-20 15:46 51.171177 -114.378943 177 5175ft 158kts
13-Dec-20 15:47 51.133185 -114.378807 177 4401ft 116kts
13-Dec-20 15:48 51.106785 -114.378659 176 3942ft 42kts
13-Dec-20 15:49 51.103452 -114.376624 90 3942ft 13kts
13-Dec-20 15:50 51.103450 -114.372619 89 3942ft 1kts
13-Dec-20 15:52 51.103052 -114.372048 177 3942ft 0kts
13-Dec-20 15:53 51.103052 -114.372048 177 3942ft 0kts
13-Dec-20 15:54 51.103052 -114.372048 177 3942ft 0kts
13-Dec-20 15:55 51.103052 -114.372048 177 3942ft 0kts
13-Dec-20 15:56 51.103052 -114.372048 177 3942ft 0kts
13-Dec-20 15:57 51.103052 -114.372048 177 3942ft 0kts
13-Dec-20 15:58 51.103052 -114.372048 177 3942ft 0kts
13-Dec-20 15:59 51.103052 -114.372048 177 3942ft 0kts
13-Dec-20 16:00 51.103052 -114.372048 177 3942ft 0kts
13-Dec-20 16:01 51.103052 -114.372048 177 3942ft 0kts
13-Dec-20 16:02 51.103052 -114.372048 177 3942ft 0kts

Navigation Log

Ident Type
Flight plan parsing failed, navigation log unavailable